Tai Shan, China
Current Conditions -  °F | °C
As of 10:00 PM on Monday 26 Jan 2015 (Local Time) from ZSJN Reporting Station
Clear Clear  
Wind Chill: 24°   Ceiling: Unl
Heat Index: 30°   Visibility: 6mi
Dew Point: 25°   Wind: 7mph
Humidity: 80%   Direction: 50°NE
Pressure: 30.53"   Gusts: NA
Location:  36.25°N, 117.1°E
Report Text: ZSJN 261400Z 05003MPS 030V090 CAVOK M01/M04 Q1034 NOSIG
Loading
Personal Weather Stations






























Interactive Weather Map New forecast layout! Learn more

10-Day Weather Forecast

Advertisements
Track Severe Weather on mobile